Lincolnton, New York
Current Conditions -  °F | °C
As of 12:51 PM on Tuesday 21 Oct 2014 (Local Time) from KNYC Reporting Station
Broken Clouds Broken Clouds  
Wind Chill: 64°   Ceiling: 7000
Heat Index: 64°   Visibility: 10mi
Dew Point: 49°   Wind: 0mph
Humidity: 58%   Direction: NA
Pressure: 29.88"   Gusts: NA
Location:  40.8135°N, 73.9374°W
Report Text: KNYC 211651Z AUTO 00000KT 10SM FEW038 SCT055 BKN070 18/09 A2988 RMK AO2 SLP109 T01780094 $
Loading
Personal Weather Stations






























Interactive Weather Map
Tropical Storm Tracking
New forecast layout! Learn more

10-Day Weather Forecast

Advertisements
Track Severe Weather on mobile